Maldives Meteorological Service

SYNOP

Station Code SYNOP
43555
AAXX 19094 43555 41462 72712 10276 20235 30090 40092 72582 83938 333 58002 82817 81918 84622 87276=
43533
AAXX 19094 43533 42460 82712 10298 20250 30087 40089 83947 333 58004 82817 81918 88275=
43577
AAXX 19094 43577 41462 72307 10308 20248 30092 40094 70282 82232 333 58008 82818 87076=
43588
AAXX 19094 43588 42462 72307 10302 20257 30091 40092 82238 333 58006 82818 87277=
43599
AAXX 19094 43599 41460 72309 10305 20256 30091 40093 70182 82238 333 58007 82817 83361 86276=
Last Updated : 2018-08-19 13:59:57